Search for airport 
image banner adimage banner adimage banner ad
image banner ad

35PA - Upmc Bedford Memorial

Located in Everett, United States

ICAO - 35PA, IATA -

Data provided by Airmate  

General information

Coordinates: N40°1'32" W78°26'1"
Elevation is 1200 feet MSL.
Magnetic variation is -10° East
View others Airports in Pennsylvania

Operational data

Special qualification required
Current time UTC:
Current local time:
Weather at : KHMZ - Bedford County ( 10 km )
METAR: KHMZ 091335Z AUTO 00000KT 5SM -SN SCT037 OVC046 06/02 A3007 RMK AO2 LTG DSNT W T00570021
View NOTAMs / SUP AIP / TFR affecting this airport [VIEW]
Communications frequencies: [VIEW]

Runways:

Airport contact information

Address: Everett United States

Satellite view of 35PA